Time;durP1;ratioP1;P1;durP2;ratioP2;P2;SDS_P1;SDS_P2;PMS_P1;PMS_P2;Temp;Humidity;BMP_temperature;BMP_pressure;BME280_temperature;BME280_humidity;BME280_pressure;Samples;Min_cycle;Max_cycle;Signal;HPM_P1;HPM_P2
2023/11/21 00:00:11;;;;;;;;;;;;;;;20.76;54.66;100337.88;5016359;28;6528;-72
2023/11/21 00:02:40;;;;;;;;;;;;;;;20.76;54.72;100340.00;5015774;28;2189;-72
2023/11/21 00:05:09;;;;;;;;;;;;;;;20.77;54.63;100347.22;5016261;28;2024;-72
2023/11/21 00:07:36;;;;;;;;;;;;;;;20.74;54.68;100349.28;5015934;28;2012;-72
2023/11/21 00:10:05;;;;;;;;;;;;;;;20.73;54.82;100347.06;5016519;28;2185;-72
2023/11/21 00:12:33;;;;;;;;;;;;;;;20.73;54.92;100352.81;5016982;28;1612;-72
2023/11/21 00:15:01;;;;;;;;;;;;;;;20.71;54.77;100357.13;5015740;28;2187;-71
2023/11/21 00:17:27;;;;;;;;;;;;;;;20.71;54.55;100356.38;5014655;28;1562;-72
2023/11/21 00:19:54;;;;;;;;;;;;;;;20.71;54.58;100357.13;5017078;28;2028;-72
2023/11/21 00:22:20;;;;;;;;;;;;;;;20.72;54.82;100363.59;4999159;28;2142;-72
2023/11/21 00:24:47;;;;;;;;;;;;;;;20.70;54.69;100372.16;5017932;28;2111;-72
2023/11/21 00:27:14;;;;;;;;;;;;;;;20.69;54.57;100370.69;5016084;28;2107;-72
2023/11/21 00:29:40;;;;;;;;;;;;;;;20.69;54.52;100377.19;5015521;28;2169;-72
2023/11/21 00:32:07;;;;;;;;;;;;;;;20.68;54.79;100380.72;5013924;28;5990;-72
2023/11/21 00:34:34;;;;;;;;;;;;;;;20.67;54.62;100377.09;5015895;28;2207;-72
2023/11/21 00:37:00;;;;;;;;;;;;;;;20.66;54.98;100383.50;5016206;28;2278;-71
2023/11/21 00:39:27;;;;;;;;;;;;;;;20.67;54.58;100379.25;5015492;28;2209;-72
2023/11/21 00:41:53;;;;;;;;;;;;;;;20.66;54.59;100387.16;5013853;28;2107;-72
2023/11/21 00:44:20;;;;;;;;;;;;;;;20.65;54.62;100382.03;5012720;28;2237;-72
2023/11/21 00:46:47;;;;;;;;;;;;;;;20.65;54.63;100390.69;5014962;28;2209;-72
2023/11/21 00:49:13;;;;;;;;;;;;;;;20.64;54.57;100395.69;5016006;28;2258;-72
2023/11/21 00:51:40;;;;;;;;;;;;;;;20.64;54.56;100395.69;5014350;28;2217;-72
2023/11/21 00:54:07;;;;;;;;;;;;;;;20.64;54.85;100397.84;4998050;28;2152;-72
2023/11/21 00:56:33;;;;;;;;;;;;;;;20.63;54.40;100402.84;5014551;28;2060;-72
2023/11/21 00:59:00;;;;;;;;;;;;;;;20.62;54.74;100406.41;5015338;28;2213;-72
2023/11/21 01:01:26;;;;;;;;;;;;;;;20.61;54.72;100405.63;5014922;28;6073;-72
2023/11/21 01:03:54;;;;;;;;;;;;;;;20.61;54.55;100407.78;5015312;28;2141;-72
2023/11/21 01:06:20;;;;;;;;;;;;;;;20.61;54.48;100422.16;5014587;28;2135;-72
2023/11/21 01:08:46;;;;;;;;;;;;;;;20.59;54.62;100411.34;5015799;28;2182;-72
2023/11/21 01:11:13;;;;;;;;;;;;;;;20.59;54.43;100419.97;5015177;28;1976;-72
2023/11/21 01:13:39;;;;;;;;;;;;;;;20.59;54.43;100422.09;5014752;28;2230;-72
2023/11/21 01:16:06;;;;;;;;;;;;;;;20.59;54.80;100430.72;5015743;28;2507;-73
2023/11/21 01:18:32;;;;;;;;;;;;;;;20.59;54.74;100431.47;5014228;28;1961;-71
2023/11/21 01:21:02;;;;;;;;;;;;;;;20.58;54.50;100435.72;5014528;28;2087;-72
2023/11/21 01:23:28;;;;;;;;;;;;;;;20.59;54.72;100430.72;5015069;28;2146;-71
2023/11/21 01:25:57;;;;;;;;;;;;;;;20.58;54.68;100432.13;5013040;28;2258;-71
2023/11/21 01:28:24;;;;;;;;;;;;;;;20.58;54.67;100441.47;5012550;28;2218;-71
2023/11/21 01:30:50;;;;;;;;;;;;;;;20.57;54.67;100434.25;5015552;28;6226;-72
2023/11/21 01:33:18;;;;;;;;;;;;;;;20.58;54.51;100435.00;5012827;28;2180;-71
2023/11/21 01:35:46;;;;;;;;;;;;;;;20.55;54.45;100439.91;5014346;28;2040;-72
2023/11/21 01:38:13;;;;;;;;;;;;;;;20.55;54.70;100437.03;5015051;28;2166;-72
2023/11/21 01:40:39;;;;;;;;;;;;;;;20.55;54.80;100453.53;5014022;28;2321;-71
2023/11/21 01:43:08;;;;;;;;;;;;;;;20.54;54.33;100440.56;5013069;28;2177;-71
2023/11/21 01:45:35;;;;;;;;;;;;;;;20.55;54.45;100444.91;5014378;28;2253;-71
2023/11/21 01:48:02;;;;;;;;;;;;;;;20.54;54.46;100452.78;5013592;28;2186;-71
2023/11/21 01:50:29;;;;;;;;;;;;;;;20.51;54.43;100443.34;5013582;28;2165;-71
2023/11/21 01:52:56;;;;;;;;;;;;;;;20.52;54.56;100452.72;5014228;28;2182;-71
2023/11/21 01:55:22;;;;;;;;;;;;;;;20.50;54.52;100459.16;5014741;28;2177;-71
2023/11/21 01:57:54;;;;;;;;;;;;;;;20.50;54.37;100459.16;4996445;28;2239;-71
2023/11/21 02:00:20;;;;;;;;;;;;;;;20.49;54.44;100466.28;4996643;28;6220;-72
2023/11/21 02:02:47;;;;;;;;;;;;;;;20.50;54.49;100464.91;4983034;28;2074;-71
2023/11/21 02:05:18;;;;;;;;;;;;;;;20.49;54.64;100469.16;5013873;28;2198;-71
2023/11/21 02:07:44;;;;;;;;;;;;;;;20.49;54.80;100469.16;5014760;28;2083;-71
2023/11/21 02:10:14;;;;;;;;;;;;;;;20.48;54.31;100473.44;5013205;28;2149;-71
2023/11/21 02:12:44;;;;;;;;;;;;;;;20.48;54.63;100475.59;4996488;28;2029;-71
2023/11/21 02:15:20;;;;;;;;;;;;;;;20.47;54.50;100469.06;5012215;28;2176;-71
2023/11/21 02:17:49;;;;;;;;;;;;;;;20.47;54.29;100466.19;5013553;28;2329;-71
2023/11/21 02:20:18;;;;;;;;;;;;;;;20.46;54.48;100467.59;5015679;28;2076;-71
2023/11/21 02:22:55;;;;;;;;;;;;;;;20.46;54.64;100469.75;5011735;28;2134;-71
2023/11/21 02:25:22;;;;;;;;;;;;;;;20.47;54.49;100474.81;5012663;28;2134;-71
2023/11/21 02:27:49;;;;;;;;;;;;;;;20.47;54.40;100477.69;5009878;28;2296;-71
2023/11/21 02:30:16;;;;;;;;;;;;;;;20.47;54.36;100477.69;5007622;28;5983;-71
2023/11/21 02:32:44;;;;;;;;;;;;;;;20.46;54.40;100481.25;5012687;28;2147;-71
2023/11/21 02:35:15;;;;;;;;;;;;;;;20.45;54.38;100476.88;5012533;28;2361;-71
2023/11/21 02:37:42;;;;;;;;;;;;;;;20.44;54.57;100481.91;5013962;28;2083;-71
2023/11/21 02:40:09;;;;;;;;;;;;;;;20.44;54.50;100478.28;5010989;28;2193;-71
2023/11/21 02:42:36;;;;;;;;;;;;;;;20.44;54.39;100490.53;5013129;28;2155;-71
2023/11/21 02:45:02;;;;;;;;;;;;;;;20.43;54.44;100489.06;5011150;28;2209;-71
2023/11/21 02:47:28;;;;;;;;;;;;;;;20.43;54.66;100477.56;5013986;28;2036;-71
2023/11/21 02:49:56;;;;;;;;;;;;;;;20.42;54.22;100487.56;5011553;28;2210;-71
2023/11/21 02:52:22;;;;;;;;;;;;;;;20.43;54.37;100489.06;5014403;28;2032;-71
2023/11/21 02:54:49;;;;;;;;;;;;;;;20.42;54.43;100487.56;4996631;28;2045;-71
2023/11/21 02:57:16;;;;;;;;;;;;;;;20.42;54.49;100492.59;5012565;28;2147;-72
2023/11/21 02:59:42;;;;;;;;;;;;;;;20.41;54.55;100502.59;5012694;28;2162;-71
2023/11/21 03:02:08;;;;;;;;;;;;;;;20.41;54.47;100502.59;5011010;28;6167;-71
2023/11/21 03:04:36;;;;;;;;;;;;;;;20.41;54.60;100491.84;5013413;28;2146;-71
2023/11/21 03:07:03;;;;;;;;;;;;;;;20.40;54.45;100501.13;5012098;28;2079;-71
2023/11/21 03:09:30;;;;;;;;;;;;;;;20.38;54.49;100504.66;5012714;28;2083;-71
2023/11/21 03:11:57;;;;;;;;;;;;;;;20.39;54.37;100514.78;5012450;28;2154;-71
2023/11/21 03:14:24;;;;;;;;;;;;;;;20.38;54.41;100519.03;5013748;28;2178;-71
2023/11/21 03:16:50;;;;;;;;;;;;;;;20.37;54.55;100526.19;5016862;28;2055;-71
2023/11/21 03:19:17;;;;;;;;;;;;;;;20.36;54.61;100521.81;5016389;28;2243;-71
2023/11/21 03:21:43;;;;;;;;;;;;;;;20.36;54.61;100530.44;5017316;28;2170;-71
2023/11/21 03:24:11;;;;;;;;;;;;;;;20.36;54.56;100530.44;5016415;28;2166;-71
2023/11/21 03:26:38;;;;;;;;;;;;;;;20.38;54.52;100535.56;5016622;28;1811;-71
2023/11/21 03:29:04;;;;;;;;;;;;;;;20.37;54.55;100543.44;5017165;28;2181;-71
2023/11/21 03:31:31;;;;;;;;;;;;;;;20.36;54.66;100546.97;5014879;28;6078;-71
2023/11/21 03:33:57;;;;;;;;;;;;;;;20.35;54.41;100557.00;5016177;28;2256;-71
2023/11/21 03:36:25;;;;;;;;;;;;;;;20.34;54.58;100559.16;5016236;28;2027;-71
2023/11/21 03:38:51;;;;;;;;;;;;;;;20.33;54.58;100554.78;5010686;28;2450;-71
2023/11/21 03:41:18;;;;;;;;;;;;;;;20.34;54.56;100556.28;5014973;28;2166;-71
2023/11/21 03:43:45;;;;;;;;;;;;;;;20.35;54.36;100562.75;5017064;28;2126;-71
2023/11/21 03:46:12;;;;;;;;;;;;;;;20.35;54.45;100563.50;5016218;28;2099;-71
2023/11/21 03:48:39;;;;;;;;;;;;;;;20.35;54.50;100563.50;5016972;28;2795;-71
2023/11/21 03:51:05;;;;;;;;;;;;;;;20.36;54.37;100567.84;5016050;28;2162;-71
2023/11/21 03:53:31;;;;;;;;;;;;;;;20.39;54.19;100577.31;4998576;28;2220;-71
2023/11/21 03:55:58;;;;;;;;;;;;;;;20.40;54.07;100582.38;5015428;28;2158;-71
2023/11/21 03:58:24;;;;;;;;;;;;;;;20.40;54.33;100578.78;5016841;28;2146;-71
2023/11/21 04:00:51;;;;;;;;;;;;;;;20.41;54.21;100580.25;5015442;28;6246;-71
2023/11/21 04:03:17;;;;;;;;;;;;;;;20.40;54.33;100582.38;5016479;28;2190;-72
2023/11/21 04:05:45;;;;;;;;;;;;;;;20.40;54.24;100582.38;5015313;28;2079;-71
2023/11/21 04:08:12;;;;;;;;;;;;;;;20.39;54.04;100578.03;5014839;28;2214;-71
2023/11/21 04:10:39;;;;;;;;;;;;;;;20.41;54.29;100583.88;5015221;28;1724;-72
2023/11/21 04:13:06;;;;;;;;;;;;;;;20.40;54.06;100581.66;5014377;28;2166;-71
2023/11/21 04:15:34;;;;;;;;;;;;;;;20.41;54.20;100595.38;5002360;28;1971;-71
2023/11/21 04:18:00;;;;;;;;;;;;;;;20.42;54.14;100599.72;5013791;28;2300;-72
2023/11/21 04:20:27;;;;;;;;;;;;;;;20.42;54.17;100602.59;5015556;28;2084;-71
2023/11/21 04:22:53;;;;;;;;;;;;;;;20.43;53.98;100604.09;5014855;28;2213;-71
2023/11/21 04:25:20;;;;;;;;;;;;;;;20.43;54.32;100612.72;5015800;28;2179;-72
2023/11/21 04:27:46;;;;;;;;;;;;;;;20.43;54.19;100609.84;5014637;28;2047;-71
2023/11/21 04:30:14;;;;;;;;;;;;;;;20.42;54.11;100608.38;5014466;28;6154;-71
2023/11/21 04:32:41;;;;;;;;;;;;;;;20.41;54.24;100606.88;5015092;28;2064;-71
2023/11/21 04:35:11;;;;;;;;;;;;;;;20.42;54.11;100614.09;5014965;28;2157;-71
2023/11/21 04:37:37;;;;;;;;;;;;;;;20.42;53.99;100617.00;5013859;28;1956;-71
2023/11/21 04:40:06;;;;;;;;;;;;;;;20.43;54.21;100620.59;5015504;28;2119;-71
2023/11/21 04:42:34;;;;;;;;;;;;;;;20.43;54.31;100623.47;5014509;28;2131;-71
2023/11/21 04:45:01;;;;;;;;;;;;;;;20.42;54.20;100619.88;5015528;28;2102;-71
2023/11/21 04:47:27;;;;;;;;;;;;;;;20.43;54.06;100632.09;5014421;28;1586;-71
2023/11/21 04:49:55;;;;;;;;;;;;;;;20.42;54.21;100627.75;5015561;28;2123;-71
2023/11/21 04:52:21;;;;;;;;;;;;;;;20.39;54.46;100626.94;5014175;28;2133;-71
2023/11/21 04:54:48;;;;;;;;;;;;;;;20.40;54.21;100624.78;5013349;28;2194;-71
2023/11/21 04:57:14;;;;;;;;;;;;;;;20.39;54.33;100632.69;5014673;28;2317;-71
2023/11/21 04:59:40;;;;;;;;;;;;;;;20.44;54.07;100636.47;5014517;28;2297;-71
2023/11/21 05:02:07;;;;;;;;;;;;;;;20.44;54.06;100636.47;5013884;28;6198;-71
2023/11/21 05:04:34;;;;;;;;;;;;;;;20.44;54.13;100639.34;5013804;28;2151;-71
2023/11/21 05:07:01;;;;;;;;;;;;;;;20.43;54.33;100649.34;5015626;28;2150;-71
2023/11/21 05:09:28;;;;;;;;;;;;;;;20.45;54.26;100649.44;5014701;28;2252;-71
2023/11/21 05:11:54;;;;;;;;;;;;;;;20.44;54.25;100651.59;5015130;28;2088;-71
2023/11/21 05:14:21;;;;;;;;;;;;;;;20.44;54.23;100663.09;5012511;28;2149;-71
2023/11/21 05:16:47;;;;;;;;;;;;;;;20.45;54.26;100658.06;5012744;28;2356;-71
2023/11/21 05:19:14;;;;;;;;;;;;;;;20.45;54.26;100664.56;5014269;28;2125;-71
2023/11/21 05:21:40;;;;;;;;;;;;;;;20.45;54.03;100670.31;5013669;28;2334;-71
2023/11/21 05:24:06;;;;;;;;;;;;;;;20.45;54.13;100663.84;5013080;28;2092;-71
2023/11/21 05:26:36;;;;;;;;;;;;;;;20.46;54.18;100668.94;5014390;28;2388;-71
2023/11/21 05:29:02;;;;;;;;;;;;;;;20.44;54.07;100674.59;4987705;28;2101;-71
2023/11/21 05:31:29;;;;;;;;;;;;;;;20.46;54.35;100668.94;5014006;28;6021;-71
2023/11/21 05:33:56;;;;;;;;;;;;;;;20.47;54.16;100681.91;5014594;28;2189;-71
2023/11/21 05:36:22;;;;;;;;;;;;;;;20.47;53.95;100681.91;5013125;28;2276;-71
2023/11/21 05:38:48;;;;;;;;;;;;;;;20.47;54.15;100699.16;5013242;28;2170;-71
2023/11/21 05:41:16;;;;;;;;;;;;;;;20.43;54.25;100696.13;5013254;28;2213;-77
2023/11/21 05:43:43;;;;;;;;;;;;;;;20.41;54.43;100698.94;5014767;28;2092;-69
2023/11/21 05:46:10;;;;;;;;;;;;;;;20.40;54.29;100713.94;5013988;28;2190;-71
2023/11/21 05:48:39;;;;;;;;;;;;;;;20.39;54.49;100706.72;5013427;28;2213;-71
2023/11/21 05:51:06;;;;;;;;;;;;;;;20.38;54.24;100708.84;5015291;28;2169;-71
2023/11/21 05:53:32;;;;;;;;;;;;;;;20.38;54.60;100711.72;5014308;28;2087;-71
2023/11/21 05:55:58;;;;;;;;;;;;;;;20.39;54.42;100713.22;5012046;28;2178;-71
2023/11/21 05:58:26;;;;;;;;;;;;;;;20.39;54.26;100716.09;5014815;28;2198;-71
2023/11/21 06:00:52;;;;;;;;;;;;;;;20.38;54.50;100726.09;5012328;28;6152;-71
2023/11/21 06:03:19;;;;;;;;;;;;;;;20.38;54.52;100734.72;5013882;28;2244;-71
2023/11/21 06:05:45;;;;;;;;;;;;;;;20.37;54.37;100730.38;5012106;28;2016;-71
2023/11/21 06:08:12;;;;;;;;;;;;;;;20.38;54.45;100734.72;5011709;28;2305;-71
2023/11/21 06:10:39;;;;;;;;;;;;;;;20.38;54.46;100740.47;5011779;28;2177;-71
2023/11/21 06:13:07;;;;;;;;;;;;;;;20.40;54.50;100745.59;5012904;28;2225;-71
2023/11/21 06:15:43;;;;;;;;;;;;;;;20.39;54.42;100741.22;5014094;28;2155;-71
2023/11/21 06:18:10;;;;;;;;;;;;;;;20.40;54.11;100745.59;5011315;28;2212;-71
2023/11/21 06:20:40;;;;;;;;;;;;;;;20.40;54.35;100752.06;5011048;28;2199;-78
2023/11/21 06:23:07;;;;;;;;;;;;;;;20.44;55.45;100760.88;5015290;28;2158;-78
2023/11/21 06:25:36;;;;;;;;;;;;;;;20.43;55.23;100761.53;5014989;28;2095;-76
2023/11/21 06:28:02;;;;;;;;;;;;;;;20.40;55.64;100765.72;5015084;28;2087;-80
2023/11/21 06:30:29;;;;;;;;;;;;;;;20.39;55.50;100782.22;5014938;28;6260;-80
2023/11/21 06:32:56;;;;;;;;;;;;;;;20.30;55.36;100780.38;5014891;28;2104;-79
2023/11/21 06:35:22;;;;;;;;;;;;;;;20.20;55.21;100779.91;5016007;28;2157;-77
2023/11/21 06:37:49;;;;;;;;;;;;;;;20.17;54.38;100789.84;5012871;28;2146;-75
2023/11/21 06:40:18;;;;;;;;;;;;;;;20.25;53.66;100790.22;4996809;28;2411;-79
2023/11/21 06:42:45;;;;;;;;;;;;;;;19.76;52.00;100788.66;5013962;28;2245;-71
2023/11/21 06:45:12;;;;;;;;;;;;;;;18.91;51.01;100797.41;5012768;28;2186;-74
2023/11/21 06:47:39;;;;;;;;;;;;;;;18.71;50.57;100797.06;5014063;28;2320;-74
2023/11/21 06:50:07;;;;;;;;;;;;;;;18.48;48.81;100798.00;5012731;28;2295;-74
2023/11/21 06:52:33;;;;;;;;;;;;;;;18.33;49.56;100804.38;5012323;28;2375;-82
2023/11/21 06:54:59;;;;;;;;;;;;;;;18.38;48.29;100806.09;5011342;28;2389;-73
2023/11/21 06:57:26;;;;;;;;;;;;;;;18.13;48.17;100815.50;5011138;28;2287;-73
2023/11/21 06:59:52;;;;;;;;;;;;;;;18.24;47.95;100811.06;5008961;28;2442;-69
2023/11/21 07:02:20;;;;;;;;;;;;;;;19.00;47.20;100815.78;5011396;28;5993;-70
2023/11/21 07:04:46;;;;;;;;;;;;;;;19.34;48.23;100813.19;5010893;28;2252;-70
2023/11/21 07:07:13;;;;;;;;;;;;;;;19.53;48.90;100817.69;5011226;28;2402;-70
2023/11/21 07:09:41;;;;;;;;;;;;;;;19.66;48.55;100825.50;5012972;28;2209;-69
2023/11/21 07:12:08;;;;;;;;;;;;;;;19.73;49.96;100820.84;5013237;28;2323;-70
2023/11/21 07:14:34;;;;;;;;;;;;;;;19.78;51.03;100814.63;5011992;28;2297;-70
2023/11/21 07:17:00;;;;;;;;;;;;;;;19.80;51.73;100811.13;5011067;28;2325;-69
2023/11/21 07:19:27;;;;;;;;;;;;;;;19.83;52.05;100816.31;5012492;28;2352;-70
2023/11/21 07:21:53;;;;;;;;;;;;;;;19.85;51.72;100816.41;5011976;28;2239;-70
2023/11/21 07:24:20;;;;;;;;;;;;;;;19.87;52.25;100816.50;5010677;28;2162;-69
2023/11/21 07:26:49;;;;;;;;;;;;;;;19.85;52.34;100824.28;5012776;28;2386;-70
2023/11/21 07:29:16;;;;;;;;;;;;;;;19.78;51.73;100823.25;5012270;28;2311;-70
2023/11/21 07:31:42;;;;;;;;;;;;;;;19.90;51.68;100828.84;5008746;28;5997;-72
2023/11/21 07:34:09;;;;;;;;;;;;;;;20.02;53.79;100829.44;5006570;28;2357;-76
2023/11/21 07:36:35;;;;;;;;;;;;;;;20.56;54.47;100828.97;5009436;28;3654;-74
2023/11/21 07:39:02;;;;;;;;;;;;;;;20.74;53.47;100841.34;5011710;28;2578;-73
2023/11/21 07:41:29;;;;;;;;;;;;;;;20.87;53.04;100840.50;5008526;28;2591;-74
2023/11/21 07:43:58;;;;;;;;;;;;;;;20.97;52.36;100842.31;5013629;28;2563;-73
2023/11/21 07:46:26;;;;;;;;;;;;;;;21.08;52.14;100850.75;5011818;28;2564;-73
2023/11/21 07:48:53;;;;;;;;;;;;;;;21.12;52.05;100853.06;5010610;28;2556;-74
2023/11/21 07:51:20;;;;;;;;;;;;;;;21.20;51.65;100850.53;5014269;28;2536;-76
2023/11/21 07:53:47;;;;;;;;;;;;;;;21.24;51.70;100853.59;5010970;28;2555;-74
2023/11/21 07:56:13;;;;;;;;;;;;;;;21.29;51.82;100846.59;5010702;28;2495;-74
2023/11/21 07:58:39;;;;;;;;;;;;;;;21.30;51.43;100856.72;5012206;28;2605;-75
2023/11/21 08:01:06;;;;;;;;;;;;;;;21.31;51.34;100858.19;5012895;28;5995;-74
2023/11/21 08:03:33;;;;;;;;;;;;;;;21.18;50.36;100861.94;5015337;28;2451;-76
2023/11/21 08:06:00;;;;;;;;;;;;;;;20.93;50.08;100860.88;5015619;28;2629;-75
2023/11/21 08:08:27;;;;;;;;;;;;;;;20.89;49.07;100866.47;5016947;28;2037;-77
2023/11/21 08:10:56;;;;;;;;;;;;;;;20.92;48.15;100870.19;5016093;28;2497;-77
2023/11/21 08:13:23;;;;;;;;;;;;;;;21.01;47.78;100866.28;5015120;28;2558;-75
2023/11/21 08:15:53;;;;;;;;;;;;;;;21.04;47.26;100875.75;5019427;28;2186;-74
2023/11/21 08:18:20;;;;;;;;;;;;;;;20.78;46.02;100866.69;5014133;28;2453;-75
2023/11/21 08:20:48;;;;;;;;;;;;;;;20.55;46.38;100877.16;5015315;28;2365;-74
2023/11/21 08:23:15;;;;;;;;;;;;;;;20.48;46.43;100881.88;5016157;28;2303;-74
2023/11/21 08:25:45;;;;;;;;;;;;;;;20.61;46.44;100882.47;5013227;28;3599;-76
2023/11/21 08:28:11;;;;;;;;;;;;;;;20.70;46.16;100885.03;5017158;28;2340;-77
2023/11/21 08:30:38;;;;;;;;;;;;;;;20.80;45.74;100895.53;5011130;28;6267;-74
2023/11/21 08:33:04;;;;;;;;;;;;;;;20.86;45.30;100885.03;5014289;28;2463;-73
2023/11/21 08:35:33;;;;;;;;;;;;;;;20.94;45.43;100887.56;5015567;28;2374;-78
2023/11/21 08:38:00;;;;;;;;;;;;;;;20.88;45.79;100885.13;5017152;28;2584;-76
2023/11/21 08:40:26;;;;;;;;;;;;;;;20.81;46.67;100897.75;5014965;28;4007;-78
2023/11/21 08:42:53;;;;;;;;;;;;;;;20.78;46.81;100893.31;5016036;28;2389;-77
2023/11/21 08:45:19;;;;;;;;;;;;;;;20.78;47.14;100898.34;5014491;28;2326;-75
2023/11/21 08:47:46;;;;;;;;;;;;;;;20.81;47.66;100912.16;5013570;28;2406;-74
2023/11/21 08:50:12;;;;;;;;;;;;;;;20.84;47.73;100904.34;5011332;28;2498;-72
2023/11/21 08:52:40;;;;;;;;;;;;;;;20.83;47.94;100909.38;5013664;28;2381;-72
2023/11/21 08:55:12;;;;;;;;;;;;;;;20.81;48.21;100917.91;5012485;28;2554;-72
2023/11/21 08:57:40;;;;;;;;;;;;;;;18.54;43.83;100915.91;5015010;28;2401;-73
2023/11/21 09:00:16;;;;;;;;;;;;;;;17.55;43.08;100918.22;5013410;28;5991;-75
2023/11/21 09:02:43;;;;;;;;;;;;;;;18.74;42.32;100915.53;5010288;28;2339;-72
2023/11/21 09:05:11;;;;;;;;;;;;;;;19.42;42.31;100917.72;4994514;28;2513;-73
2023/11/21 09:07:38;;;;;;;;;;;;;;;19.79;43.36;100924.56;5013201;28;2301;-73
2023/11/21 09:10:09;;;;;;;;;;;;;;;19.98;45.41;100921.22;5011002;28;2487;-75
2023/11/21 09:12:36;;;;;;;;;;;;;;;20.00;45.21;100932.81;5013210;28;2635;-74
2023/11/21 09:15:06;;;;;;;;;;;;;;;20.15;45.61;100942.13;5013125;28;3626;-73
2023/11/21 09:17:34;;;;;;;;;;;;;;;20.22;46.64;100953.25;5013205;28;2374;-75
2023/11/21 09:20:03;;;;;;;;;;;;;;;20.22;47.17;100952.53;5012658;28;2540;-75
2023/11/21 09:22:30;;;;;;;;;;;;;;;20.25;47.36;100951.97;4997221;28;2567;-75
2023/11/21 09:24:57;;;;;;;;;;;;;;;20.27;47.40;100951.31;5013771;28;2550;-75
2023/11/21 09:27:25;;;;;;;;;;;;;;;20.28;47.50;100950.69;5014040;28;2505;-75
2023/11/21 09:29:52;;;;;;;;;;;;;;;20.30;47.90;100955.78;5012972;28;2504;-77
2023/11/21 09:32:21;;;;;;;;;;;;;;;20.31;47.88;100963.03;5010943;28;6204;-75
2023/11/21 09:34:48;;;;;;;;;;;;;;;19.05;45.01;100963.84;5008007;28;3523;-75
2023/11/21 09:37:14;;;;;;;;;;;;;;;19.48;44.62;100973.97;5009442;28;2566;-77
2023/11/21 09:39:43;;;;;;;;;;;;;;;19.82;46.30;100969.25;5007817;28;2483;-74
2023/11/21 09:42:11;;;;;;;;;;;;;;;20.06;46.74;100975.47;5010819;28;2522;-74
2023/11/21 09:44:40;;;;;;;;;;;;;;;20.15;46.98;100971.59;5011076;28;2673;-74
2023/11/21 09:47:10;;;;;;;;;;;;;;;19.91;46.13;100981.91;5011507;28;2487;-73
2023/11/21 09:49:37;;;;;;;;;;;;;;;18.53;43.65;100993.97;5012404;28;2651;-73
2023/11/21 09:52:03;;;;;;;;;;;;;;;19.07;43.61;100986.91;4990758;28;4242;-77
2023/11/21 09:54:31;;;;;;;;;;;;;;;19.79;44.55;100987.75;5000014;28;2477;-78
2023/11/21 09:56:59;;;;;;;;;;;;;;;20.22;44.78;100987.03;5013019;28;2487;-79
2023/11/21 09:59:28;;;;;;;;;;;;;;;20.44;45.39;100985.22;4999672;28;2354;-79
2023/11/21 10:01:55;;;;;;;;;;;;;;;20.58;45.50;100993.81;4995359;28;6014;-76
2023/11/21 10:04:22;;;;;;;;;;;;;;;20.68;46.02;100990.69;4995992;28;2525;-75
2023/11/21 10:06:53;;;;;;;;;;;;;;;20.73;46.22;100995.25;5009011;28;4013;-75
2023/11/21 10:09:20;;;;;;;;;;;;;;;20.75;46.19;101001.09;5015154;28;2440;-76
2023/11/21 10:11:47;;;;;;;;;;;;;;;20.78;46.31;100994.03;5000554;28;2321;-76
2023/11/21 10:14:14;;;;;;;;;;;;;;;20.79;46.49;101004.16;5014307;28;2299;-75
2023/11/21 10:16:43;;;;;;;;;;;;;;;20.82;46.63;100994.25;5011343;28;2393;-74
2023/11/21 10:19:10;;;;;;;;;;;;;;;20.89;46.94;100996.00;4999926;28;2889;-76
2023/11/21 10:21:37;;;;;;;;;;;;;;;21.11;46.57;100999.16;5013928;28;2342;-79
2023/11/21 10:24:06;;;;;;;;;;;;;;;21.15;46.05;101000.75;5015575;28;2250;-77
2023/11/21 10:26:36;;;;;;;;;;;;;;;21.21;46.50;101004.66;5015828;28;2429;-77
2023/11/21 10:29:19;;;;;;;;;;;;;;;21.22;46.60;101006.13;5017098;28;1815;-77
2023/11/21 10:31:46;;;;;;;;;;;;;;;21.21;46.56;101001.78;5015003;28;6282;-78
2023/11/21 10:34:15;;;;;;;;;;;;;;;21.18;46.92;101011.69;4999337;28;2465;-79
2023/11/21 10:36:42;;;;;;;;;;;;;;;21.20;46.95;101006.03;5016325;28;1907;-75
2023/11/21 10:39:09;;;;;;;;;;;;;;;21.21;47.27;101007.53;5016815;28;1838;-76
2023/11/21 10:41:36;;;;;;;;;;;;;;;21.21;47.41;101015.41;5016209;28;2224;-76
2023/11/21 10:44:09;;;;;;;;;;;;;;;21.17;47.63;101013.09;4997463;28;2980;-75
2023/11/21 10:46:36;;;;;;;;;;;;;;;21.21;47.75;101010.41;5016770;28;2271;-75
2023/11/21 10:49:02;;;;;;;;;;;;;;;21.23;47.90;101019.13;5011441;28;2488;-75
2023/11/21 10:51:30;;;;;;;;;;;;;;;21.25;47.45;101015.59;5006954;28;2378;-74
2023/11/21 10:53:57;;;;;;;;;;;;;;;21.27;47.75;101013.53;5013622;28;2517;-78
2023/11/21 10:56:24;;;;;;;;;;;;;;;21.30;48.14;101023.78;5014035;28;2382;-76
2023/11/21 10:58:51;;;;;;;;;;;;;;;21.42;47.89;101034.41;4999344;28;2425;-75
2023/11/21 11:01:18;;;;;;;;;;;;;;;21.31;47.79;101031.00;4996906;28;6331;-76
2023/11/21 11:03:45;;;;;;;;;;;;;;;21.34;48.14;101031.84;5014012;28;2514;-79
2023/11/21 11:06:16;;;;;;;;;;;;;;;21.31;48.26;101036.03;4985836;28;2852;-75
2023/11/21 11:08:42;;;;;;;;;;;;;;;21.29;48.62;101038.81;5012959;28;2381;-74
2023/11/21 11:11:11;;;;;;;;;;;;;;;21.22;48.56;101045.72;5013250;28;2500;-78
2023/11/21 11:13:38;;;;;;;;;;;;;;;21.27;48.53;101042.34;5016851;28;2398;-77
2023/11/21 11:16:11;;;;;;;;;;;;;;;21.22;48.41;101046.44;5015024;28;2378;-78
2023/11/21 11:18:37;;;;;;;;;;;;;;;21.29;48.43;101053.22;5011965;28;2433;-78
2023/11/21 11:21:07;;;;;;;;;;;;;;;21.24;48.32;101049.41;5015086;28;2252;-82
2023/11/21 11:23:50;;;;;;;;;;;;;;;21.26;48.86;101052.41;4994338;28;2450;-80
2023/11/21 11:26:25;;;;;;;;;;;;;;;21.37;48.38;101050.69;5000446;28;2378;-76
2023/11/21 11:29:06;;;;;;;;;;;;;;;21.37;48.14;101055.72;4996866;28;3912;-77
2023/11/21 11:31:39;;;;;;;;;;;;;;;21.39;48.21;101059.44;4996699;28;6165;-75
2023/11/21 11:34:14;;;;;;;;;;;;;;;21.38;48.43;101068.75;4997086;28;2265;-78
2023/11/21 11:36:51;;;;;;;;;;;;;;;21.39;48.54;101070.22;4999472;28;2024;-77
2023/11/21 11:39:29;;;;;;;;;;;;;;;21.41;48.73;101073.22;5001486;28;2479;-73
2023/11/21 11:41:57;;;;;;;;;;;;;;;21.40;48.61;101077.50;5014909;28;2292;-75
2023/11/21 11:44:45;;;;;;;;;;;;;;;21.45;48.63;101074.16;5016356;28;2373;-71
2023/11/21 11:47:15;;;;;;;;;;;;;;;21.22;47.04;101075.25;5001324;28;2320;-81
2023/11/21 11:50:00;;;;;;;;;;;;;;;21.15;48.33;101087.13;5013862;28;2457;-71
2023/11/21 11:52:36;;;;;;;;;;;;;;;21.46;48.44;101089.28;5015330;28;2216;-71
2023/11/21 11:55:04;;;;;;;;;;;;;;;21.60;48.38;101089.97;5013885;28;2284;-71
2023/11/21 11:57:32;;;;;;;;;;;;;;;21.69;48.62;101096.81;5016462;28;2240;-70
2023/11/21 12:00:11;;;;;;;;;;;;;;;21.74;48.02;101096.34;5014992;28;2271;-69
2023/11/21 12:02:38;;;;;;;;;;;;;;;21.81;48.12;101105.28;5015435;28;7182;-69
2023/11/21 12:05:13;;;;;;;;;;;;;;;21.85;47.88;101102.56;4996735;28;2360;-69
2023/11/21 12:07:56;;;;;;;;;;;;;;;21.98;47.88;101115.38;5012469;28;2346;-70
2023/11/21 12:10:27;;;;;;;;;;;;;;;21.96;48.00;101107.38;4998477;28;2272;-70
2023/11/21 12:12:56;;;;;;;;;;;;;;;21.95;47.86;101118.16;5016345;28;2240;-70
2023/11/21 12:15:30;;;;;;;;;;;;;;;21.87;48.12;101122.81;5001770;28;2312;-70
2023/11/21 12:17:56;;;;;;;;;;;;;;;21.83;48.60;101109.00;5015636;28;2260;-70
2023/11/21 12:20:23;;;;;;;;;;;;;;;21.83;48.58;101122.63;5015987;28;2256;-69
2023/11/21 12:22:51;;;;;;;;;;;;;;;21.84;48.43;101121.25;5016140;28;2467;-69
2023/11/21 12:25:18;;;;;;;;;;;;;;;21.69;48.30;101126.38;5015684;28;2350;-71
2023/11/21 12:27:46;;;;;;;;;;;;;;;21.65;48.98;101134.13;5016170;28;2301;-71
2023/11/21 12:30:16;;;;;;;;;;;;;;;21.60;48.98;101138.94;5013987;28;6200;-71
2023/11/21 12:32:42;;;;;;;;;;;;;;;21.59;49.34;101137.44;5015985;28;2331;-70
2023/11/21 12:35:10;;;;;;;;;;;;;;;21.60;49.31;101141.81;5016410;28;2248;-70
2023/11/21 12:37:37;;;;;;;;;;;;;;;21.60;49.45;101150.47;5015469;28;2217;-72
2023/11/21 12:40:05;;;;;;;;;;;;;;;21.60;49.54;101153.34;5014656;28;2310;-71
2023/11/21 12:42:32;;;;;;;;;;;;;;;21.62;49.76;101156.31;5016141;28;2276;-71
2023/11/21 12:45:06;;;;;;;;;;;;;;;21.62;49.85;101150.53;4999038;28;2316;-71
2023/11/21 12:47:35;;;;;;;;;;;;;;;21.63;49.74;101152.03;5015235;28;2300;-69
2023/11/21 12:50:02;;;;;;;;;;;;;;;21.70;49.66;101150.91;5015140;28;2300;-69